Time;durP1;ratioP1;P1;durP2;ratioP2;P2;SDS_P1;SDS_P2;PMS_P1;PMS_P2;Temp;Humidity;BMP_temperature;BMP_pressure;BME280_temperature;BME280_humidity;BME280_pressure;Samples;Min_cycle;Max_cycle;Signal;HPM_P1;HPM_P2
2023/05/06 03:17:12;;;;;;;4.32;1.70;;;16.00;93.30;;;;;;6201596;22;89382;-77
2023/05/06 03:19:37;;;;;;;3.25;1.70;;;16.00;93.30;;;;;;6221201;22;87751;-77
2023/05/06 03:22:03;;;;;;;4.38;1.63;;;16.00;93.60;;;;;;6220973;22;92491;-78
2023/05/06 03:24:29;;;;;;;4.00;1.25;;;16.00;93.40;;;;;;6245638;22;88678;-77
2023/05/06 03:26:57;;;;;;;3.38;1.58;;;16.00;93.30;;;;;;6249245;22;86913;-77
2023/05/06 03:29:23;;;;;;;2.80;1.15;;;16.00;93.40;;;;;;6249562;22;87309;-75
2023/05/06 03:31:52;;;;;;;6.57;2.08;;;15.90;93.20;;;;;;6249941;22;88398;-77
2023/05/06 03:34:17;;;;;;;2.58;0.50;;;15.80;93.70;;;;;;6249610;22;88807;-78
2023/05/06 03:36:44;;;;;;;3.85;0.88;;;15.80;93.20;;;;;;6249587;22;87373;-76
2023/05/06 03:39:09;;;;;;;3.75;0.47;;;15.80;93.30;;;;;;6223936;22;86521;-77
2023/05/06 03:41:35;;;;;;;1.73;0.20;;;15.80;92.90;;;;;;6248170;22;87939;-77
2023/05/06 03:44:00;;;;;;;2.70;0.28;;;15.90;91.80;;;;;;6222004;22;88901;-76
2023/05/06 03:46:26;;;;;;;2.17;0.30;;;15.90;91.80;;;;;;6247723;22;88280;-77
2023/05/06 03:48:52;;;;;;;4.50;0.30;;;15.90;91.60;;;;;;6248445;22;87586;-77
2023/05/06 03:51:18;;;;;;;1.48;0.32;;;16.00;91.90;;;;;;6247150;22;89195;-77
2023/05/06 03:53:43;;;;;;;4.30;0.30;;;16.00;91.60;;;;;;6248338;22;87562;-75
2023/05/06 03:56:09;;;;;;;1.13;0.30;;;16.10;91.40;;;;;;6222139;22;87213;-75
2023/05/06 03:58:35;;;;;;;1.05;0.22;;;16.10;91.40;;;;;;6221179;22;87147;-77
2023/05/06 04:01:01;;;;;;;1.05;0.30;;;16.10;91.60;;;;;;6247297;22;88094;-74
2023/05/06 04:03:26;;;;;;;1.17;0.30;;;16.10;91.50;;;;;;6247111;22;87023;-75
2023/05/06 04:05:52;;;;;;;3.45;0.90;;;16.10;91.70;;;;;;6248707;22;87296;-76
2023/05/06 04:08:18;;;;;;;4.93;1.15;;;16.10;92.00;;;;;;6247916;22;87338;-77
2023/05/06 04:10:44;;;;;;;2.53;0.93;;;16.10;92.20;;;;;;6220030;22;89920;-76
2023/05/06 04:13:09;;;;;;;2.78;1.05;;;16.10;92.20;;;;;;6247098;22;88185;-75
2023/05/06 04:15:36;;;;;;;2.00;0.80;;;16.10;92.20;;;;;;6249013;22;87191;-76
2023/05/06 04:18:02;;;;;;;1.98;0.43;;;16.00;92.30;;;;;;6223451;22;87718;-75
2023/05/06 04:20:28;;;;;;;2.47;0.55;;;15.90;92.30;;;;;;6217363;22;88008;-75
2023/05/06 04:22:53;;;;;;;2.15;0.40;;;15.90;92.60;;;;;;6216766;22;87204;-75
2023/05/06 04:25:20;;;;;;;1.70;0.82;;;16.00;92.70;;;;;;6190795;22;87363;-78
2023/05/06 04:27:45;;;;;;;2.67;0.77;;;16.00;92.80;;;;;;6218873;22;86804;-77
2023/05/06 04:30:12;;;;;;;1.80;0.52;;;16.10;92.80;;;;;;6217620;22;88382;-77
2023/05/06 04:32:37;;;;;;;4.18;0.73;;;16.20;92.20;;;;;;6216276;22;87339;-78
2023/05/06 04:35:04;;;;;;;2.58;0.47;;;16.30;92.10;;;;;;6191210;22;88548;-78
2023/05/06 04:37:29;;;;;;;3.72;0.80;;;16.50;92.00;;;;;;6218266;22;87887;-78
2023/05/06 04:39:56;;;;;;;2.15;0.47;;;16.80;91.30;;;;;;6217763;22;88609;-78
2023/05/06 04:42:22;;;;;;;1.90;0.52;;;16.90;91.00;;;;;;6217433;22;87269;-78
2023/05/06 04:44:48;;;;;;;2.40;0.60;;;16.90;90.80;;;;;;6216606;22;87283;-77
2023/05/06 04:47:14;;;;;;;2.45;0.93;;;16.90;90.80;;;;;;6217801;22;86923;-75
2023/05/06 04:49:40;;;;;;;3.30;0.80;;;16.80;91.00;;;;;;6217767;22;87528;-76
2023/05/06 04:52:06;;;;;;;2.30;0.65;;;16.70;91.20;;;;;;6217577;22;87689;-76
2023/05/06 04:54:32;;;;;;;1.60;0.52;;;16.80;91.30;;;;;;6191570;22;87015;-77
2023/05/06 04:56:57;;;;;;;3.33;0.57;;;17.00;90.90;;;;;;6217869;22;87468;-76
2023/05/06 04:59:23;;;;;;;3.05;1.13;;;17.10;90.90;;;;;;6216967;22;88640;-76
2023/05/06 05:01:49;;;;;;;4.53;1.20;;;17.30;90.30;;;;;;6216989;22;87257;-76
2023/05/06 05:04:15;;;;;;;5.85;1.83;;;17.60;90.40;;;;;;6210306;22;87738;-76
2023/05/06 05:06:41;;;;;;;5.05;2.17;;;18.10;89.10;;;;;;6217166;22;87581;-76
2023/05/06 05:09:09;;;;;;;3.40;2.10;;;18.30;86.90;;;;;;6216574;22;87850;-76
2023/05/06 05:11:37;;;;;;;3.88;1.58;;;18.20;86.10;;;;;;6216700;22;88193;-76
2023/05/06 05:14:03;;;;;;;4.65;1.88;;;18.20;85.50;;;;;;6214816;22;86980;-75
2023/05/06 05:16:28;;;;;;;4.43;1.88;;;18.20;85.60;;;;;;6215421;22;86694;-76
2023/05/06 05:18:54;;;;;;;5.85;1.98;;;18.10;85.50;;;;;;6215764;22;87482;-76
2023/05/06 05:21:20;;;;;;;5.38;2.22;;;18.10;85.80;;;;;;6218849;22;87269;-77
2023/05/06 05:23:45;;;;;;;6.00;1.80;;;17.90;85.70;;;;;;6216504;22;88363;-76
2023/05/06 05:26:12;;;;;;;5.63;2.22;;;17.80;85.90;;;;;;6218640;22;87089;-77
2023/05/06 05:28:37;;;;;;;4.55;1.88;;;17.70;86.20;;;;;;6217251;22;88499;-78
2023/05/06 05:31:04;;;;;;;4.75;1.60;;;17.60;86.20;;;;;;6218531;22;87410;-77
2023/05/06 05:33:30;;;;;;;4.90;1.80;;;17.50;87.60;;;;;;6191660;22;87320;-76
2023/05/06 05:35:56;;;;;;;4.38;2.28;;;17.40;88.70;;;;;;6218709;22;87370;-77
2023/05/06 05:38:22;;;;;;;2.67;0.68;;;17.40;89.40;;;;;;6219311;22;87904;-76
2023/05/06 05:40:48;;;;;;;3.42;0.60;;;17.40;88.50;;;;;;6217854;22;87634;-77
2023/05/06 05:43:13;;;;;;;1.52;0.30;;;17.30;88.90;;;;;;6217825;22;87358;-78
2023/05/06 05:45:39;;;;;;;2.63;0.47;;;17.20;89.20;;;;;;6217008;22;87444;-77
2023/05/06 05:48:05;;;;;;;3.08;0.30;;;17.10;89.80;;;;;;6217580;22;90101;-76
2023/05/06 05:50:30;;;;;;;1.80;0.40;;;17.00;89.90;;;;;;6218865;22;87247;-76
2023/05/06 05:52:56;;;;;;;2.67;0.43;;;17.00;90.70;;;;;;6218644;22;87460;-76
2023/05/06 05:55:22;;;;;;;2.30;0.63;;;17.00;90.70;;;;;;6218522;22;87285;-76
2023/05/06 05:57:47;;;;;;;2.88;0.55;;;16.90;90.70;;;;;;6218388;22;87897;-76
2023/05/06 06:00:13;;;;;;;4.18;0.93;;;17.00;91.20;;;;;;6218836;22;88850;-75
2023/05/06 06:02:40;;;;;;;2.50;0.75;;;17.10;91.50;;;;;;6219894;22;87363;-75
2023/05/06 06:05:06;;;;;;;4.88;0.43;;;17.20;90.60;;;;;;6217792;22;86314;-76
2023/05/06 06:07:32;;;;;;;3.22;0.32;;;17.30;90.30;;;;;;6218247;22;87619;-77
2023/05/06 06:09:57;;;;;;;2.92;0.38;;;17.40;89.90;;;;;;6219011;22;87653;-76
2023/05/06 06:12:23;;;;;;;2.10;0.45;;;17.40;90.20;;;;;;6216531;22;87911;-75
2023/05/06 06:14:49;;;;;;;1.23;0.45;;;17.40;90.20;;;;;;6217530;22;87398;-75
2023/05/06 06:17:15;;;;;;;1.25;0.40;;;17.30;89.90;;;;;;6216655;22;88004;-76
2023/05/06 06:19:41;;;;;;;4.32;1.27;;;17.10;90.30;;;;;;6217366;22;87262;-77
2023/05/06 06:22:07;;;;;;;2.88;0.60;;;17.00;90.60;;;;;;6218773;22;87315;-77
2023/05/06 06:24:33;;;;;;;2.35;0.35;;;16.90;91.00;;;;;;6217912;22;87547;-76
2023/05/06 06:27:00;;;;;;;2.55;0.38;;;16.80;91.50;;;;;;6218193;22;88127;-76
2023/05/06 06:29:26;;;;;;;2.53;0.45;;;16.80;91.80;;;;;;6217861;22;88228;-76
2023/05/06 06:31:51;;;;;;;1.17;0.43;;;16.80;92.20;;;;;;6217988;22;87050;-76
2023/05/06 06:34:17;;;;;;;4.60;1.08;;;16.90;92.70;;;;;;6218625;22;87533;-75
2023/05/06 06:36:44;;;;;;;2.00;0.85;;;17.00;92.30;;;;;;6217137;22;88462;-77
2023/05/06 06:39:11;;;;;;;3.67;1.33;;;17.10;91.60;;;;;;6217164;22;88275;-75
2023/05/06 06:41:37;;;;;;;5.47;1.25;;;17.30;91.40;;;;;;6219358;22;87292;-76
2023/05/06 06:44:03;;;;;;;5.47;2.33;;;17.30;91.60;;;;;;6218738;22;87109;-76
2023/05/06 06:46:29;;;;;;;6.97;3.30;;;17.40;92.20;;;;;;6218250;22;88069;-76
2023/05/06 06:48:54;;;;;;;4.20;1.80;;;17.50;92.50;;;;;;6218355;22;87766;-75
2023/05/06 06:51:20;;;;;;;4.88;2.88;;;17.50;91.00;;;;;;6219258;22;87287;-75
2023/05/06 06:53:47;;;;;;;4.07;2.60;;;17.60;91.70;;;;;;6218961;22;86711;-76
2023/05/06 06:56:14;;;;;;;2.83;0.85;;;17.80;91.80;;;;;;6218942;22;88451;-76
2023/05/06 06:58:40;;;;;;;2.88;0.50;;;17.80;90.80;;;;;;6218388;22;87464;-76
2023/05/06 07:01:06;;;;;;;5.28;0.38;;;17.80;90.20;;;;;;6218096;22;88116;-75
2023/05/06 07:03:32;;;;;;;2.13;0.73;;;17.80;90.40;;;;;;6217915;22;87256;-77
2023/05/06 07:05:58;;;;;;;2.30;0.70;;;17.80;90.60;;;;;;6217143;22;87521;-75
2023/05/06 07:08:23;;;;;;;4.90;0.55;;;17.80;90.60;;;;;;6217679;22;88125;-75
2023/05/06 07:10:49;;;;;;;2.38;0.43;;;17.90;90.30;;;;;;6217937;22;87245;-74
2023/05/06 07:13:15;;;;;;;2.22;0.40;;;18.00;90.00;;;;;;6216279;22;87439;-77
2023/05/06 07:15:41;;;;;;;1.30;0.60;;;18.20;89.50;;;;;;6216420;22;87959;-78
2023/05/06 07:18:08;;;;;;;1.83;0.22;;;18.40;88.10;;;;;;6217718;22;87523;-77
2023/05/06 07:20:33;;;;;;;3.58;0.98;;;18.90;87.40;;;;;;6218798;22;87359;-77
2023/05/06 07:22:59;;;;;;;3.30;0.70;;;21.40;81.20;;;;;;6217952;22;87044;-77
2023/05/06 07:25:26;;;;;;;5.18;0.73;;;24.10;74.90;;;;;;6216119;22;88812;-77
2023/05/06 07:27:52;;;;;;;3.15;0.70;;;26.00;66.00;;;;;;6217893;22;88767;-78
2023/05/06 07:30:19;;;;;;;2.00;0.60;;;26.90;61.60;;;;;;6218032;22;87454;-76
2023/05/06 07:32:45;;;;;;;1.80;0.60;;;26.40;60.40;;;;;;6217018;22;86994;-75
2023/05/06 07:35:10;;;;;;;2.70;0.70;;;25.80;59.70;;;;;;6217675;22;88027;-78
2023/05/06 07:37:36;;;;;;;2.72;0.65;;;25.40;61.40;;;;;;6217345;22;87386;-76
2023/05/06 07:40:02;;;;;;;3.92;0.57;;;25.20;63.20;;;;;;6218195;22;87054;-77
2023/05/06 07:42:27;;;;;;;3.80;1.38;;;24.60;62.40;;;;;;6218694;22;86875;-75
2023/05/06 07:44:53;;;;;;;2.08;0.63;;;24.10;64.40;;;;;;6218267;22;87871;-76
2023/05/06 07:47:30;;;;;;;3.15;0.60;;;23.90;65.20;;;;;;6217401;22;87320;-75
2023/05/06 07:49:56;;;;;;;4.30;0.50;;;23.60;66.40;;;;;;6217811;22;88452;-75
2023/05/06 07:52:23;;;;;;;3.47;0.55;;;23.20;67.40;;;;;;6218482;22;87606;-75
2023/05/06 07:54:49;;;;;;;1.88;0.60;;;22.70;68.20;;;;;;6218118;22;88084;-75
2023/05/06 07:57:15;;;;;;;1.85;0.90;;;22.50;69.60;;;;;;6218459;22;87593;-77
2023/05/06 07:59:43;;;;;;;2.05;0.68;;;22.30;69.30;;;;;;6218527;22;87411;-76
2023/05/06 08:02:09;;;;;;;4.60;0.50;;;22.00;71.20;;;;;;6219007;22;87443;-75
2023/05/06 08:04:35;;;;;;;2.03;0.50;;;22.00;71.50;;;;;;6218351;22;88115;-75
2023/05/06 08:07:00;;;;;;;2.63;0.95;;;22.20;70.70;;;;;;6218538;22;86562;-79
2023/05/06 08:09:26;;;;;;;1.83;0.60;;;22.90;69.90;;;;;;6187554;22;87870;-78
2023/05/06 08:11:52;;;;;;;1.95;0.80;;;25.10;66.40;;;;;;6216215;22;87821;-80
2023/05/06 08:14:18;;;;;;;1.35;0.55;;;27.40;60.30;;;;;;6214823;22;89022;-78
2023/05/06 08:16:43;;;;;;;2.90;0.80;;;28.80;57.20;;;;;;6218167;22;88608;-78
2023/05/06 08:19:09;;;;;;;3.72;1.02;;;30.20;53.60;;;;;;6191817;22;86995;-77
2023/05/06 08:21:35;;;;;;;2.25;0.85;;;32.30;50.30;;;;;;6218310;22;87036;-77
2023/05/06 08:24:00;;;;;;;2.90;1.15;;;32.30;49.10;;;;;;6217567;22;87516;-77
2023/05/06 08:26:26;;;;;;;3.03;1.27;;;31.80;48.50;;;;;;6218022;22;88580;-77
2023/05/06 08:28:52;;;;;;;3.08;1.63;;;32.50;46.60;;;;;;6218009;22;87339;-78
2023/05/06 08:31:20;;;;;;;3.63;2.38;;;32.20;48.00;;;;;;6214702;22;86740;-80
2023/05/06 08:33:46;;;;;;;2.33;1.10;;;32.50;47.10;;;;;;6213103;22;88121;-79
2023/05/06 08:36:11;;;;;;;2.45;1.10;;;34.50;44.70;;;;;;6215506;22;87631;-82
2023/05/06 08:38:37;;;;;;;2.78;1.67;;;33.90;43.80;;;;;;6215030;22;88234;-84
2023/05/06 08:41:12;;;;;;;4.72;1.77;;;34.00;44.40;;;;;;6214855;22;87479;-76
2023/05/06 08:43:47;;;;;;;3.38;1.65;;;35.70;42.20;;;;;;6210906;22;89001;-78
2023/05/06 08:46:13;;;;;;;3.17;1.40;;;37.10;41.00;;;;;;6214746;22;87179;-77
2023/05/06 08:48:39;;;;;;;3.53;2.42;;;38.60;41.00;;;;;;6187788;22;87457;-77
2023/05/06 08:51:06;;;;;;;2.40;1.65;;;39.40;37.60;;;;;;6187801;22;87535;-79
2023/05/06 08:53:33;;;;;;;2.38;1.98;;;39.90;37.30;;;;;;6185108;22;89052;-80
2023/05/06 08:56:05;;;;;;;2.28;1.92;;;40.00;37.20;;;;;;6216134;22;88184;-77
2023/05/06 08:58:36;;;;;;;3.13;1.85;;;40.00;36.60;;;;;;6216562;22;87339;-77
2023/05/06 09:01:03;;;;;;;2.40;1.13;;;39.80;36.00;;;;;;6213263;22;87193;-78
2023/05/06 09:03:29;;;;;;;3.20;2.05;;;38.30;37.50;;;;;;6183752;22;91111;-80
2023/05/06 09:05:57;;;;;;;2.85;1.52;;;37.10;38.60;;;;;;6213232;22;88947;-77
2023/05/06 09:08:23;;;;;;;;;;;35.60;40.70;;;;;;6215303;22;87347;-77
2023/05/06 09:10:49;;;;;;;3.97;0.82;;;34.00;42.30;;;;;;6189855;22;87409;-79
2023/05/06 09:13:16;;;;;;;2.22;1.05;;;32.40;43.00;;;;;;6185816;22;90766;-78
2023/05/06 09:15:46;;;;;;;1.73;0.88;;;30.90;46.00;;;;;;6187750;22;89483;-77
2023/05/06 09:18:12;;;;;;;1.70;0.73;;;29.90;47.00;;;;;;6208941;22;87317;-77
2023/05/06 09:20:45;;;;;;;2.08;1.15;;;29.20;49.00;;;;;;6214875;22;86910;-76
2023/05/06 09:23:13;;;;;;;1.45;0.55;;;29.60;49.50;;;;;;6210149;22;89913;-79
2023/05/06 09:25:40;;;;;;;4.03;1.13;;;30.00;49.20;;;;;;6214623;22;87639;-77
2023/05/06 09:28:10;;;;;;;3.30;0.57;;;29.70;48.00;;;;;;6212720;22;88224;-81
2023/05/06 09:30:41;;;;;;;1.90;0.82;;;28.90;49.50;;;;;;6212571;22;87640;-77
2023/05/06 09:33:07;;;;;;;3.80;1.05;;;28.70;51.60;;;;;;6215052;22;88727;-76
2023/05/06 09:35:43;;;;;;;3.75;0.82;;;29.10;49.30;;;;;;6214781;22;88411;-77
2023/05/06 09:38:09;;;;;;;3.45;0.52;;;29.10;51.10;;;;;;6216113;22;87990;-78
2023/05/06 09:40:36;;;;;;;1.50;0.55;;;29.00;48.70;;;;;;6216079;22;87388;-76
2023/05/06 09:43:02;;;;;;;3.70;0.60;;;29.40;49.70;;;;;;6214040;22;87304;-78
2023/05/06 09:45:29;;;;;;;2.35;0.40;;;29.50;49.00;;;;;;6215258;22;88082;-78
2023/05/06 09:47:56;;;;;;;2.58;0.85;;;30.50;46.30;;;;;;6216247;22;87199;-77
2023/05/06 09:50:22;;;;;;;2.45;1.55;;;31.00;44.70;;;;;;6215968;22;87470;-76
2023/05/06 09:52:49;;;;;;;2.58;0.98;;;31.70;46.00;;;;;;6216539;22;88654;-75
2023/05/06 09:55:18;;;;;;;2.15;1.05;;;33.00;44.00;;;;;;6216912;22;88594;-77
2023/05/06 09:57:45;;;;;;;1.80;1.13;;;33.90;43.10;;;;;;6218567;22;87689;-77
2023/05/06 10:00:12;;;;;;;3.03;1.15;;;34.00;41.90;;;;;;6218483;22;87168;-78
2023/05/06 10:02:40;;;;;;;2.15;1.42;;;33.00;42.00;;;;;;6216601;22;90452;-74
2023/05/06 10:05:08;;;;;;;3.22;1.08;;;33.50;42.90;;;;;;6217943;22;88064;-76
2023/05/06 10:07:34;;;;;;;1.30;0.77;;;33.10;42.00;;;;;;6219230;22;87614;-76
2023/05/06 10:10:02;;;;;;;2.38;0.73;;;32.30;43.50;;;;;;6220628;22;86415;-75
2023/05/06 10:12:28;;;;;;;5.15;1.45;;;31.60;46.00;;;;;;6218360;22;87556;-76
2023/05/06 10:14:55;;;;;;;3.53;1.52;;;31.10;49.30;;;;;;6219034;22;87140;-76
2023/05/06 10:17:27;;;;;;;3.40;2.13;;;30.60;48.70;;;;;;6218322;22;88372;-76
2023/05/06 10:19:58;;;;;;;2.83;1.88;;;30.00;49.30;;;;;;6219289;22;87870;-76
2023/05/06 10:22:51;;;;;;;3.28;2.22;;;29.40;51.60;;;;;;6218229;22;88073;-76
2023/05/06 10:25:31;;;;;;;4.00;2.25;;;29.00;51.80;;;;;;6191981;22;90237;-76
2023/05/06 10:27:58;;;;;;;3.50;2.10;;;28.60;53.90;;;;;;6219599;22;87390;-75
2023/05/06 10:30:27;;;;;;;4.05;1.90;;;28.00;54.00;;;;;;6219228;22;87288;-76
2023/05/06 10:32:56;;;;;;;4.18;1.65;;;27.90;54.70;;;;;;6218417;22;88193;-76
2023/05/06 10:35:42;;;;;;;3.30;2.05;;;27.90;55.60;;;;;;6219214;22;88203;-76
2023/05/06 10:38:32;;;;;;;3.15;2.00;;;27.60;54.20;;;;;;6219272;22;87222;-76
2023/05/06 10:40:59;;;;;;;4.30;1.90;;;27.40;54.50;;;;;;6217895;22;87278;-76
2023/05/06 10:43:32;;;;;;;3.00;1.60;;;27.20;55.40;;;;;;6218225;22;89007;-77
2023/05/06 10:46:12;;;;;;;3.53;1.83;;;27.10;56.80;;;;;;6218863;22;88798;-76
2023/05/06 10:49:12;;;;;;;3.97;1.98;;;26.90;56.90;;;;;;6218814;22;87089;-76
2023/05/06 10:51:39;;;;;;;3.72;1.70;;;26.90;56.80;;;;;;6219624;22;87555;-76
2023/05/06 10:54:30;;;;;;;3.47;1.88;;;26.90;55.90;;;;;;6218336;22;88359;-76
2023/05/06 10:56:57;;;;;;;9.32;4.50;;;26.90;56.30;;;;;;6213129;22;88103;-77
2023/05/06 10:59:24;;;;;;;4.68;2.28;;;27.20;56.40;;;;;;6219089;22;87569;-77
2023/05/06 11:02:07;;;;;;;5.13;1.90;;;26.90;57.00;;;;;;6220068;22;86400;-77
2023/05/06 11:04:33;;;;;;;4.50;1.58;;;26.90;57.00;;;;;;6218496;22;89012;-76
2023/05/06 11:07:13;;;;;;;4.25;1.77;;;26.70;58.00;;;;;;6218545;22;87694;-77
2023/05/06 11:10:09;;;;;;;3.55;2.95;;;27.00;57.30;;;;;;6218650;22;88011;-77
2023/05/06 11:12:47;;;;;;;3.72;2.35;;;27.20;57.90;;;;;;6217391;22;87381;-76
2023/05/06 11:15:38;;;;;;;4.30;2.60;;;27.20;57.80;;;;;;6217891;22;88383;-78
2023/05/06 11:18:25;;;;;;;4.30;2.08;;;27.90;57.30;;;;;;6200472;22;87427;-77
2023/05/06 11:21:13;;;;;;;3.70;1.98;;;28.10;56.70;;;;;;6219032;22;87052;-76
2023/05/06 11:23:42;;;;;;;6.97;1.63;;;27.90;57.30;;;;;;6218917;22;87291;-77
2023/05/06 11:26:12;;;;;;;5.78;2.03;;;27.60;55.80;;;;;;6218443;22;88626;-76
2023/05/06 11:28:38;;;;;;;3.65;2.15;;;27.40;55.70;;;;;;6192664;22;91023;-76
2023/05/06 11:31:05;;;;;;;3.08;1.70;;;26.90;57.10;;;;;;6191609;22;87395;-76
2023/05/06 11:33:34;;;;;;;2.50;1.60;;;26.70;56.50;;;;;;6192797;22;87401;-76
2023/05/06 11:36:00;;;;;;;;;;;26.20;57.10;;;;;;6218322;22;88360;-76
2023/05/06 11:38:37;;;;;;;3.25;1.90;;;26.20;57.30;;;;;;6219789;22;87734;-78
2023/05/06 11:41:03;;;;;;;6.50;2.70;;;26.20;59.00;;;;;;6219520;22;87390;-76
2023/05/06 11:43:29;;;;;;;3.28;2.13;;;26.20;58.10;;;;;;6192180;22;87341;-76
2023/05/06 11:45:54;;;;;;;3.67;2.17;;;26.00;57.00;;;;;;6218303;22;87933;-77
2023/05/06 11:48:20;;;;;;;3.20;1.90;;;25.80;57.30;;;;;;6191758;22;89130;-78
2023/05/06 11:50:47;;;;;;;3.85;2.40;;;25.70;57.30;;;;;;6218154;22;87175;-77
2023/05/06 11:53:19;;;;;;;5.10;1.70;;;25.60;58.00;;;;;;6219713;22;86599;-77
2023/05/06 11:55:46;;;;;;;5.30;2.35;;;25.70;58.30;;;;;;6218111;22;87790;-76
2023/05/06 11:58:17;;;;;;;3.53;1.83;;;25.60;58.50;;;;;;6192024;22;90597;-76
2023/05/06 12:00:46;;;;;;;4.45;2.13;;;25.50;58.40;;;;;;6218318;22;88432;-77
2023/05/06 12:03:15;;;;;;;5.40;2.58;;;25.30;59.90;;;;;;6192437;22;87289;-77
2023/05/06 12:05:41;;;;;;;3.63;2.15;;;25.40;60.40;;;;;;6218751;22;89030;-76
2023/05/06 12:08:09;;;;;;;2.90;1.52;;;25.60;59.00;;;;;;6218917;22;87741;-77
2023/05/06 12:10:36;;;;;;;5.32;1.55;;;25.80;59.60;;;;;;6218782;22;87081;-76
2023/05/06 12:13:04;;;;;;;2.92;1.20;;;26.00;58.20;;;;;;6191767;22;87495;-76
2023/05/06 12:15:30;;;;;;;2.70;1.20;;;26.30;58.10;;;;;;6190999;22;90386;-76
2023/05/06 12:17:56;;;;;;;3.38;2.22;;;26.20;56.00;;;;;;6218306;22;86336;-76
2023/05/06 12:20:22;;;;;;;1.80;1.13;;;25.90;56.40;;;;;;6218216;22;87442;-76
2023/05/06 12:23:07;;;;;;;2.50;1.08;;;25.90;57.30;;;;;;6218700;22;87436;-76
2023/05/06 12:25:33;;;;;;;3.03;0.95;;;26.00;57.60;;;;;;6217201;22;89441;-77
2023/05/06 12:27:59;;;;;;;4.07;0.88;;;26.30;57.80;;;;;;6217078;22;88658;-76
2023/05/06 12:30:33;;;;;;;2.13;0.73;;;26.10;55.90;;;;;;6218571;22;87402;-77
2023/05/06 12:33:00;;;;;;;1.98;0.60;;;26.10;55.60;;;;;;6191887;22;86998;-77
2023/05/06 12:35:30;;;;;;;3.28;0.73;;;26.00;56.90;;;;;;6191140;22;90129;-77
2023/05/06 12:38:06;;;;;;;2.65;1.30;;;26.00;56.60;;;;;;6191067;22;91252;-78
2023/05/06 12:40:32;;;;;;;2.53;0.90;;;26.10;56.40;;;;;;6218767;22;87012;-76
2023/05/06 12:42:57;;;;;;;2.17;1.00;;;26.10;56.30;;;;;;6219626;22;86260;-77
2023/05/06 12:45:23;;;;;;;3.50;2.20;;;26.00;58.40;;;;;;6191403;22;90004;-77
2023/05/06 12:48:04;;;;;;;2.78;1.33;;;26.10;58.10;;;;;;6217749;22;87003;-76
2023/05/06 12:50:41;;;;;;;2.38;0.75;;;26.10;56.40;;;;;;6191125;22;88552;-76
2023/05/06 12:53:09;;;;;;;2.70;0.63;;;26.20;57.00;;;;;;6219282;22;86985;-76
2023/05/06 12:55:36;;;;;;;1.50;0.80;;;26.30;56.40;;;;;;6217892;22;87162;-77
2023/05/06 12:58:02;;;;;;;2.08;0.70;;;26.30;55.90;;;;;;6218205;22;87668;-77
2023/05/06 13:00:29;;;;;;;1.77;0.70;;;26.40;57.00;;;;;;6191850;22;87318;-77
2023/05/06 13:02:54;;;;;;;1.42;0.38;;;26.40;56.70;;;;;;6218284;22;87449;-78
2023/05/06 13:05:20;;;;;;;3.72;0.70;;;26.40;55.30;;;;;;6217407;22;89890;-78
2023/05/06 13:07:46;;;;;;;1.40;0.40;;;26.30;54.00;;;;;;6218108;22;87761;-75
2023/05/06 13:10:12;;;;;;;2.28;1.02;;;26.30;55.50;;;;;;6192193;22;86988;-77
2023/05/06 13:12:38;;;;;;;5.97;2.03;;;26.20;56.40;;;;;;6218358;22;87424;-77
2023/05/06 13:15:04;;;;;;;1.80;0.40;;;26.20;56.80;;;;;;6217608;22;88365;-77
2023/05/06 13:17:30;;;;;;;1.02;0.32;;;26.30;53.20;;;;;;6217890;22;89084;-77
2023/05/06 13:19:56;;;;;;;1.85;0.82;;;26.20;53.90;;;;;;6217649;22;87408;-77
2023/05/06 13:22:23;;;;;;;1.30;0.60;;;26.10;53.40;;;;;;6218979;22;87325;-77
2023/05/06 13:24:49;;;;;;;2.00;0.32;;;26.20;55.90;;;;;;6217985;22;87571;-77
2023/05/06 13:27:15;;;;;;;1.52;0.38;;;26.20;54.70;;;;;;6218386;22;87895;-76
2023/05/06 13:29:40;;;;;;;1.08;0.30;;;26.20;54.60;;;;;;6217491;22;87332;-77
2023/05/06 13:32:06;;;;;;;1.60;0.52;;;26.20;54.30;;;;;;6192262;22;87047;-77
2023/05/06 13:34:32;;;;;;;1.77;0.35;;;26.20;52.10;;;;;;6217836;22;87794;-78
2023/05/06 13:36:58;;;;;;;1.42;0.43;;;26.10;53.20;;;;;;6218036;22;87395;-78
2023/05/06 13:39:24;;;;;;;2.08;0.30;;;26.20;53.70;;;;;;6217694;22;88296;-77
2023/05/06 13:41:50;;;;;;;2.33;0.38;;;26.20;53.20;;;;;;6219279;22;87348;-77
2023/05/06 13:44:17;;;;;;;1.58;0.30;;;26.20;52.80;;;;;;6220020;22;87681;-77
2023/05/06 13:46:43;;;;;;;2.15;0.40;;;26.20;53.70;;;;;;6219093;22;87288;-77
2023/05/06 13:49:08;;;;;;;1.50;0.45;;;26.10;53.10;;;;;;6218659;22;87031;-77
2023/05/06 13:51:34;;;;;;;1.55;0.40;;;26.10;54.40;;;;;;6218813;22;87311;-77
2023/05/06 13:54:01;;;;;;;1.30;0.43;;;26.10;52.60;;;;;;6219253;22;87328;-77
2023/05/06 13:56:26;;;;;;;4.25;0.43;;;26.00;52.70;;;;;;6219626;22;87145;-77
2023/05/06 13:58:52;;;;;;;1.10;0.30;;;25.90;53.40;;;;;;6219976;22;87152;-77
2023/05/06 14:01:22;;;;;;;1.30;0.40;;;25.90;52.60;;;;;;6218923;22;86996;-76
2023/05/06 14:03:48;;;;;;;1.15;0.20;;;25.90;49.50;;;;;;6218928;22;89943;-76
2023/05/06 14:06:14;;;;;;;1.35;0.40;;;25.80;49.40;;;;;;6218765;22;88534;-77
2023/05/06 14:08:40;;;;;;;1.63;0.30;;;25.70;50.60;;;;;;6219545;22;87632;-78
2023/05/06 14:11:05;;;;;;;2.28;0.50;;;25.70;52.20;;;;;;6192448;22;87483;-77
2023/05/06 14:13:32;;;;;;;1.23;0.30;;;25.70;51.10;;;;;;6219378;22;87543;-77
2023/05/06 14:15:59;;;;;;;0.98;0.20;;;25.70;48.20;;;;;;6219344;22;87823;-76
2023/05/06 14:18:25;;;;;;;3.63;0.35;;;25.70;47.00;;;;;;6215931;22;87486;-77
2023/05/06 14:20:51;;;;;;;2.50;0.52;;;25.70;47.30;;;;;;6220192;22;87272;-76
2023/05/06 14:23:17;;;;;;;2.33;0.63;;;25.60;45.80;;;;;;6219387;22;87655;-77
2023/05/06 14:25:43;;;;;;;1.63;0.90;;;25.60;46.20;;;;;;6218931;22;87669;-76
2023/05/06 14:28:11;;;;;;;1.33;0.40;;;25.70;45.70;;;;;;6217449;22;88165;-77
2023/05/06 14:30:38;;;;;;;2.40;0.13;;;25.60;45.60;;;;;;6219466;22;87246;-76
2023/05/06 14:33:04;;;;;;;1.23;0.25;;;25.70;44.90;;;;;;6218791;22;88224;-78
2023/05/06 14:35:30;;;;;;;1.55;0.32;;;25.60;45.70;;;;;;6217078;22;87556;-77
2023/05/06 14:37:56;;;;;;;2.03;0.38;;;25.50;45.90;;;;;;6216906;22;87363;-76
2023/05/06 14:40:21;;;;;;;1.40;0.28;;;25.50;44.50;;;;;;6217472;22;88558;-76
2023/05/06 14:42:48;;;;;;;1.05;0.20;;;25.40;45.00;;;;;;6217982;22;89241;-76
2023/05/06 14:45:14;;;;;;;1.35;0.30;;;25.50;47.20;;;;;;6218971;22;87963;-77
2023/05/06 14:47:41;;;;;;;2.47;0.43;;;25.50;44.70;;;;;;6218336;22;86935;-77
2023/05/06 14:50:08;;;;;;;3.35;0.30;;;25.50;45.00;;;;;;6218867;22;87441;-78
2023/05/06 14:52:35;;;;;;;2.90;0.80;;;25.40;45.90;;;;;;6216794;22;89062;-78
2023/05/06 14:55:01;;;;;;;1.58;0.25;;;25.40;45.80;;;;;;6216256;22;88377;-78
2023/05/06 14:57:27;;;;;;;1.95;0.30;;;25.40;44.30;;;;;;6217974;22;86980;-79
2023/05/06 14:59:53;;;;;;;2.00;0.50;;;25.50;46.50;;;;;;6218446;22;86987;-77
2023/05/06 15:02:18;;;;;;;2.35;0.32;;;25.50;45.00;;;;;;6216880;22;87637;-78
2023/05/06 15:04:44;;;;;;;1.13;0.30;;;25.40;45.00;;;;;;6213891;22;87560;-79
2023/05/06 15:07:10;;;;;;;1.42;0.30;;;25.40;46.60;;;;;;6212253;22;87353;-77
2023/05/06 15:09:38;;;;;;;5.13;1.30;;;25.40;47.60;;;;;;6213898;22;86741;-77
2023/05/06 15:12:05;;;;;;;2.80;0.70;;;25.30;47.60;;;;;;6214334;22;87919;-77
2023/05/06 15:14:31;;;;;;;1.60;0.32;;;25.30;47.70;;;;;;6214258;22;87903;-79
2023/05/06 15:16:57;;;;;;;3.67;0.45;;;25.40;48.00;;;;;;6213823;22;90545;-76
2023/05/06 15:19:23;;;;;;;1.80;0.40;;;25.50;47.00;;;;;;6215910;22;87272;-77
2023/05/06 15:21:49;;;;;;;2.25;0.20;;;25.40;48.40;;;;;;6214522;22;88600;-76
2023/05/06 15:24:14;;;;;;;2.45;0.52;;;25.30;46.90;;;;;;6213194;22;87490;-77
2023/05/06 15:26:40;;;;;;;1.88;0.43;;;25.20;48.50;;;;;;6216438;22;87348;-76
2023/05/06 15:29:06;;;;;;;2.63;0.65;;;25.10;47.40;;;;;;6215984;22;87494;-77
2023/05/06 15:31:37;;;;;;;0.90;0.35;;;24.90;48.20;;;;;;6215193;22;88454;-77
2023/05/06 15:34:05;;;;;;;3.83;0.43;;;24.80;47.50;;;;;;6215143;22;86785;-77
2023/05/06 15:36:30;;;;;;;2.35;0.22;;;24.80;48.40;;;;;;6215453;22;87688;-77
2023/05/06 15:38:58;;;;;;;3.67;0.32;;;24.80;49.00;;;;;;6215482;22;87491;-76
2023/05/06 15:41:26;;;;;;;4.47;0.63;;;24.80;49.20;;;;;;6214992;22;89589;-78
2023/05/06 15:43:59;;;;;;;5.45;0.52;;;24.90;49.10;;;;;;6212296;22;89008;-77
2023/05/06 15:46:26;;;;;;;3.00;1.15;;;25.10;49.10;;;;;;6215436;22;87446;-77
2023/05/06 15:48:52;;;;;;;2.38;0.63;;;25.10;49.50;;;;;;6213282;22;87415;-79
2023/05/06 15:51:17;;;;;;;3.13;0.93;;;25.10;49.60;;;;;;6211630;22;88360;-77
2023/05/06 15:53:43;;;;;;;2.70;0.60;;;25.10;49.00;;;;;;6210684;22;88404;-76
2023/05/06 15:56:10;;;;;;;4.00;0.47;;;25.20;49.40;;;;;;6188389;22;87300;-78
2023/05/06 15:58:38;;;;;;;1.50;0.50;;;25.20;49.10;;;;;;6212321;22;86640;-76
2023/05/06 16:01:04;;;;;;;1.60;0.43;;;25.10;49.40;;;;;;6214487;22;87557;-77
2023/05/06 16:03:30;;;;;;;3.08;0.52;;;25.10;49.40;;;;;;6214611;22;88238;-80
2023/05/06 16:05:57;;;;;;;1.10;0.45;;;25.10;49.90;;;;;;6212210;22;88389;-83